Time;durP1;ratioP1;P1;durP2;ratioP2;P2;SDS_P1;SDS_P2;PMS_P1;PMS_P2;Temp;Humidity;BMP_temperature;BMP_pressure;BME280_temperature;BME280_humidity;BME280_pressure;Samples;Min_cycle;Max_cycle;Signal;HPM_P1;HPM_P2
2023/09/08 00:00:14;;;;;;;;;;;;;;;21.92;55.49;100122.16;3167524;28;19924;-63
2023/09/08 00:01:45;;;;;;;;;;;;;;;21.92;55.65;100117.69;3170841;28;19928;-62
2023/09/08 00:03:16;;;;;;;;;;;;;;;21.93;55.48;100123.81;3163297;28;19931;-63
2023/09/08 00:04:47;;;;;;;;;;;;;;;21.95;55.58;100121.88;3170475;28;20521;-62
2023/09/08 00:06:18;;;;;;;;;;;;;;;21.95;55.56;100117.41;3170629;28;20014;-63
2023/09/08 00:07:51;;;;;;;;;;;;;;;21.94;55.54;100115.72;3170216;28;19924;-63
2023/09/08 00:09:21;;;;;;;;;;;;;;;21.92;55.55;100112.38;3162363;28;19928;-63
2023/09/08 00:10:53;;;;;;;;;;;;;;;21.92;55.45;100114.19;3166088;28;19930;-62
2023/09/08 00:12:23;;;;;;;;;;;;;;;21.90;55.22;100114.31;3170654;28;20320;-62
2023/09/08 00:13:55;;;;;;;;;;;;;;;21.90;55.32;100111.66;3170877;28;19924;-62
2023/09/08 00:15:26;;;;;;;;;;;;;;;21.90;55.49;100121.44;3170601;28;20341;-62
2023/09/08 00:16:57;;;;;;;;;;;;;;;21.90;55.27;100119.63;3171199;28;19928;-62
2023/09/08 00:18:29;;;;;;;;;;;;;;;21.89;55.24;100115.28;3170701;28;20039;-62
2023/09/08 00:19:59;;;;;;;;;;;;;;;21.89;55.25;100120.59;3170861;28;19931;-62
2023/09/08 00:21:31;;;;;;;;;;;;;;;21.88;55.40;100118.06;3170673;28;20316;-62
2023/09/08 00:23:03;;;;;;;;;;;;;;;21.85;55.29;100118.34;3169858;28;19927;-62
2023/09/08 00:24:35;;;;;;;;;;;;;;;21.84;55.45;100119.31;3167063;28;19930;-62
2023/09/08 00:26:06;;;;;;;;;;;;;;;21.81;55.95;100117.78;3166519;28;19946;-62
2023/09/08 00:27:37;;;;;;;;;;;;;;;21.79;55.77;100117.88;3170646;28;19987;-62
2023/09/08 00:29:09;;;;;;;;;;;;;;;21.80;55.95;100116.94;3170621;28;19931;-62
2023/09/08 00:30:40;;;;;;;;;;;;;;;21.80;55.89;100116.09;3170395;28;19927;-62
2023/09/08 00:32:11;;;;;;;;;;;;;;;21.78;56.23;100110.91;3170765;28;19973;-62
2023/09/08 00:33:43;;;;;;;;;;;;;;;21.78;56.46;100115.38;3170322;28;19928;-62
2023/09/08 00:35:15;;;;;;;;;;;;;;;21.76;56.43;100115.50;3162305;28;19923;-61
2023/09/08 00:36:45;;;;;;;;;;;;;;;21.73;56.80;100115.78;3170561;28;19923;-62
2023/09/08 00:38:18;;;;;;;;;;;;;;;21.72;56.77;100114.09;3169250;28;19981;-62
2023/09/08 00:39:49;;;;;;;;;;;;;;;21.72;56.96;100118.56;3158875;28;19946;-63
2023/09/08 00:41:24;;;;;;;;;;;;;;;21.74;56.88;100116.59;3169821;28;19928;-62
2023/09/08 00:42:56;;;;;;;;;;;;;;;21.75;56.78;100120.94;3170620;28;20393;-63
2023/09/08 00:44:26;;;;;;;;;;;;;;;21.76;56.77;100119.97;3170319;28;19927;-62
2023/09/08 00:46:00;;;;;;;;;;;;;;;21.75;57.08;100118.31;3170159;28;19924;-62
2023/09/08 00:47:31;;;;;;;;;;;;;;;21.72;57.18;100118.56;3170547;28;20018;-63
2023/09/08 00:49:02;;;;;;;;;;;;;;;21.69;57.40;100116.19;3170611;28;19928;-62
2023/09/08 00:50:33;;;;;;;;;;;;;;;21.68;57.30;100123.31;3170434;28;19930;-63
2023/09/08 00:52:38;;;;;;;;;;;;;;;21.70;57.52;100117.84;3170138;28;20319;-62
2023/09/08 00:54:10;;;;;;;;;;;;;;;21.73;57.48;100117.59;3162728;28;19935;-62
2023/09/08 00:55:42;;;;;;;;;;;;;;;21.76;57.53;100117.31;3169325;28;19928;-62
2023/09/08 00:57:13;;;;;;;;;;;;;;;21.77;57.21;100113.72;3161404;28;19932;-62
2023/09/08 00:58:44;;;;;;;;;;;;;;;21.78;57.27;100115.38;3155224;28;19924;-62
2023/09/08 01:00:16;;;;;;;;;;;;;;;21.79;57.12;100111.75;3164166;28;19930;-62
2023/09/08 01:01:47;;;;;;;;;;;;;;;21.74;57.51;100100.69;3170043;28;19927;-62
2023/09/08 01:03:18;;;;;;;;;;;;;;;21.75;57.75;100110.34;3170479;28;19932;-62
2023/09/08 01:04:49;;;;;;;;;;;;;;;21.72;57.78;100107.97;3170349;28;19937;-63
2023/09/08 01:06:22;;;;;;;;;;;;;;;21.69;57.74;100100.28;3164243;28;20458;-62
2023/09/08 01:07:53;;;;;;;;;;;;;;;21.71;57.62;100103.63;3162994;28;19931;-62
2023/09/08 01:09:26;;;;;;;;;;;;;;;21.72;57.61;100113.28;3165443;28;20010;-62
2023/09/08 01:10:57;;;;;;;;;;;;;;;21.72;58.01;100105.31;3170256;28;19950;-63
2023/09/08 01:12:28;;;;;;;;;;;;;;;21.72;57.82;100100.03;3170183;28;19930;-62
2023/09/08 01:13:59;;;;;;;;;;;;;;;21.72;57.77;100100.03;3170036;28;19980;-62
2023/09/08 01:15:31;;;;;;;;;;;;;;;21.73;58.01;100101.69;3170496;28;19924;-63
2023/09/08 01:17:01;;;;;;;;;;;;;;;21.74;57.93;100098.06;3169674;28;19927;-63
2023/09/08 01:18:33;;;;;;;;;;;;;;;21.75;57.77;100092.63;3170698;28;20393;-62
2023/09/08 01:20:07;;;;;;;;;;;;;;;21.76;58.19;100096.94;3170227;28;19923;-62
2023/09/08 01:21:59;;;;;;;;;;;;;;;21.77;58.13;100095.16;3169833;28;19939;-63
2023/09/08 01:23:38;;;;;;;;;;;;;;;21.79;58.04;100095.84;3150391;28;20647;-62
2023/09/08 01:25:13;;;;;;;;;;;;;;;21.78;58.11;100089.72;3158450;28;20397;-62
2023/09/08 01:26:45;;;;;;;;;;;;;;;21.79;58.12;100088.72;3170438;28;20018;-62
2023/09/08 01:28:18;;;;;;;;;;;;;;;21.78;57.99;100089.72;3170508;28;19928;-62
2023/09/08 01:29:49;;;;;;;;;;;;;;;21.78;58.04;100087.06;3159982;28;20400;-63
2023/09/08 01:31:21;;;;;;;;;;;;;;;21.76;58.37;100086.34;3169400;28;19934;-63
2023/09/08 01:32:52;;;;;;;;;;;;;;;21.76;58.21;100088.16;3170333;28;20422;-63
2023/09/08 01:34:24;;;;;;;;;;;;;;;21.74;58.45;100088.31;3164811;28;19924;-63
2023/09/08 01:35:55;;;;;;;;;;;;;;;21.70;58.64;100088.69;3167713;28;19973;-63
2023/09/08 01:37:26;;;;;;;;;;;;;;;21.69;58.62;100084.38;3170240;28;20057;-63
2023/09/08 01:38:58;;;;;;;;;;;;;;;21.69;58.81;100087.03;3164501;28;20316;-64
2023/09/08 01:40:31;;;;;;;;;;;;;;;21.69;58.88;100084.38;3165082;28;19932;-63
2023/09/08 01:42:01;;;;;;;;;;;;;;;21.68;58.64;100083.56;3169757;28;19950;-63
2023/09/08 01:43:33;;;;;;;;;;;;;;;21.67;58.82;100084.50;3170106;28;19930;-63
2023/09/08 01:45:04;;;;;;;;;;;;;;;21.66;58.68;100082.84;3170114;28;19930;-63
2023/09/08 01:46:36;;;;;;;;;;;;;;;21.66;59.02;100089.94;3169736;28;19923;-63
2023/09/08 01:48:07;;;;;;;;;;;;;;;21.64;58.92;100087.41;3169899;28;20405;-63
2023/09/08 01:49:38;;;;;;;;;;;;;;;21.57;59.22;100092.41;3169996;28;20417;-63
2023/09/08 01:51:09;;;;;;;;;;;;;;;21.52;59.56;100097.28;3170195;28;19934;-63
2023/09/08 01:52:40;;;;;;;;;;;;;;;21.45;59.72;100092.66;3165465;28;19981;-63
2023/09/08 01:54:11;;;;;;;;;;;;;;;21.39;60.15;100095.81;3169739;28;20030;-63
2023/09/08 01:55:45;;;;;;;;;;;;;;;21.34;59.94;100094.34;3160997;28;20098;-63
2023/09/08 01:57:15;;;;;;;;;;;;;;;21.36;60.07;100096.94;3162214;28;19931;-62
2023/09/08 02:00:51;;;;;;;;;;;;;;;21.27;60.57;100100.31;3159102;28;19993;-62
2023/09/08 02:02:21;;;;;;;;;;;;;;;21.23;60.60;100101.53;3172082;28;19978;-62
2023/09/08 02:03:53;;;;;;;;;;;;;;;21.22;60.90;100097.22;3172232;28;19924;-62
2023/09/08 02:05:25;;;;;;;;;;;;;;;21.21;60.72;100100.81;3172286;28;19996;-62
2023/09/08 02:06:57;;;;;;;;;;;;;;;21.18;61.22;100098.44;3169107;28;20543;-63
2023/09/08 02:08:27;;;;;;;;;;;;;;;21.11;61.40;100095.47;3171319;28;19924;-63
2023/09/08 02:09:59;;;;;;;;;;;;;;;21.06;61.82;100100.31;3164684;28;20324;-63
2023/09/08 02:11:31;;;;;;;;;;;;;;;21.00;62.22;100101.69;3168974;28;20305;-63
2023/09/08 02:13:02;;;;;;;;;;;;;;;20.88;62.48;100085.03;3172146;28;19927;-63
2023/09/08 02:14:33;;;;;;;;;;;;;;;20.93;62.63;100095.22;3172337;28;19924;-63
2023/09/08 02:16:04;;;;;;;;;;;;;;;20.90;62.87;100098.13;3171811;28;19945;-63
2023/09/08 02:17:36;;;;;;;;;;;;;;;20.86;62.98;100097.53;3172056;28;19947;-63
2023/09/08 02:19:07;;;;;;;;;;;;;;;20.87;63.00;100091.28;3172160;28;19927;-63
2023/09/08 02:20:38;;;;;;;;;;;;;;;20.85;63.28;100101.16;3172078;28;20051;-63
2023/09/08 02:22:09;;;;;;;;;;;;;;;20.82;63.51;100090.84;3167387;28;19924;-63
2023/09/08 02:23:40;;;;;;;;;;;;;;;20.80;63.48;100092.75;3172191;28;19923;-65
2023/09/08 02:25:13;;;;;;;;;;;;;;;20.78;63.61;100096.50;3166679;28;19928;-64
2023/09/08 02:26:45;;;;;;;;;;;;;;;20.76;63.87;100090.47;3172131;28;19923;-63
2023/09/08 02:28:17;;;;;;;;;;;;;;;20.74;63.99;100087.16;3172254;28;19932;-63
2023/09/08 02:29:47;;;;;;;;;;;;;;;20.74;63.93;100092.44;3146840;28;19932;-63
2023/09/08 02:31:19;;;;;;;;;;;;;;;20.75;63.91;100086.16;3170631;28;19931;-63
2023/09/08 02:32:49;;;;;;;;;;;;;;;20.74;63.93;100093.28;3172144;28;19923;-63
2023/09/08 02:34:21;;;;;;;;;;;;;;;20.74;64.04;100084.50;3167127;28;20407;-63
2023/09/08 02:35:52;;;;;;;;;;;;;;;20.73;64.02;100086.28;3167349;28;19928;-63
2023/09/08 02:37:23;;;;;;;;;;;;;;;20.73;64.41;100082.81;3167972;28;20361;-63
2023/09/08 02:38:54;;;;;;;;;;;;;;;20.71;64.24;100079.47;3172001;28;20542;-63
2023/09/08 02:40:25;;;;;;;;;;;;;;;20.71;64.31;100079.47;3170589;28;20014;-63
2023/09/08 02:41:57;;;;;;;;;;;;;;;20.71;64.36;100076.81;3172046;28;19984;-63
2023/09/08 02:43:29;;;;;;;;;;;;;;;20.72;64.15;100079.31;3171799;28;19927;-63
2023/09/08 02:45:00;;;;;;;;;;;;;;;20.72;64.41;100076.69;3172052;28;19947;-63
2023/09/08 02:46:31;;;;;;;;;;;;;;;20.72;64.48;100074.03;3171702;28;19924;-63
2023/09/08 02:48:02;;;;;;;;;;;;;;;20.72;64.47;100074.03;3171922;28;20343;-63
2023/09/08 02:49:33;;;;;;;;;;;;;;;20.66;64.67;100070.06;3172009;28;19924;-63
2023/09/08 02:51:04;;;;;;;;;;;;;;;20.63;65.03;100072.97;3167670;28;19931;-63
2023/09/08 02:52:36;;;;;;;;;;;;;;;20.62;65.12;100071.31;3171685;28;19927;-63
2023/09/08 02:54:08;;;;;;;;;;;;;;;20.62;64.96;100073.13;3171460;28;20155;-63
2023/09/08 02:55:40;;;;;;;;;;;;;;;20.61;64.93;100071.44;3162936;28;20164;-62
2023/09/08 02:57:11;;;;;;;;;;;;;;;20.61;65.00;100074.91;3162522;28;19924;-62
2023/09/08 02:58:44;;;;;;;;;;;;;;;20.60;65.39;100080.34;3163865;28;19930;-65
2023/09/08 03:00:14;;;;;;;;;;;;;;;20.54;65.53;100076.41;3169398;28;19979;-64
2023/09/08 03:01:46;;;;;;;;;;;;;;;20.51;65.82;100076.63;3171592;28;19923;-62
2023/09/08 03:03:17;;;;;;;;;;;;;;;20.44;66.08;100068.34;3171981;28;19927;-64
2023/09/08 03:04:48;;;;;;;;;;;;;;;20.42;66.22;100077.38;3171450;28;20392;-64
2023/09/08 03:06:20;;;;;;;;;;;;;;;20.38;66.64;100073.28;3167261;28;19932;-64
2023/09/08 03:07:51;;;;;;;;;;;;;;;20.34;66.79;100070.06;3171800;28;19924;-64
2023/09/08 03:09:22;;;;;;;;;;;;;;;20.33;66.85;100073.66;3171776;28;19936;-64
2023/09/08 03:10:56;;;;;;;;;;;;;;;20.31;67.12;100086.16;3166974;28;19924;-64
2023/09/08 03:12:29;;;;;;;;;;;;;;;20.28;67.27;100080.28;3171833;28;19928;-64
2023/09/08 03:13:59;;;;;;;;;;;;;;;20.27;67.31;100081.28;3171577;28;19928;-65
2023/09/08 03:15:31;;;;;;;;;;;;;;;20.27;67.38;100078.63;3171625;28;19980;-63
2023/09/08 03:17:01;;;;;;;;;;;;;;;20.26;67.48;100085.72;3171533;28;19927;-63
2023/09/08 03:18:33;;;;;;;;;;;;;;;20.26;67.60;100082.22;3171386;28;19924;-63
2023/09/08 03:20:07;;;;;;;;;;;;;;;20.26;67.37;100080.44;3167556;28;19931;-63
2023/09/08 03:21:38;;;;;;;;;;;;;;;20.27;67.44;100082.09;3146268;28;19928;-63
2023/09/08 03:23:10;;;;;;;;;;;;;;;20.28;67.25;100086.41;3170780;28;19928;-63
2023/09/08 03:24:42;;;;;;;;;;;;;;;20.29;67.58;100090.75;3171174;28;19931;-63
2023/09/08 03:26:13;;;;;;;;;;;;;;;20.31;67.25;100087.97;3170912;28;19935;-63
2023/09/08 03:27:45;;;;;;;;;;;;;;;20.27;67.67;100082.09;3171504;28;19924;-62
2023/09/08 03:29:17;;;;;;;;;;;;;;;20.25;67.83;100078.72;3171680;28;19923;-63
2023/09/08 03:30:47;;;;;;;;;;;;;;;20.26;67.92;100082.22;3171290;28;20397;-63
2023/09/08 03:32:19;;;;;;;;;;;;;;;20.26;67.91;100080.44;3171099;28;19931;-63
2023/09/08 03:33:49;;;;;;;;;;;;;;;20.28;67.56;100085.59;3171074;28;19932;-63
2023/09/08 03:35:21;;;;;;;;;;;;;;;20.30;67.43;100088.97;3163462;28;19928;-63
2023/09/08 03:36:53;;;;;;;;;;;;;;;20.34;67.64;100085.91;3171404;28;19935;-63
2023/09/08 03:38:23;;;;;;;;;;;;;;;20.35;67.35;100086.75;3171264;28;20370;-63
2023/09/08 03:39:55;;;;;;;;;;;;;;;20.38;67.48;100083.84;3170822;28;20006;-63
2023/09/08 03:41:25;;;;;;;;;;;;;;;20.42;67.00;100083.50;3161630;28;20401;-63
2023/09/08 03:42:58;;;;;;;;;;;;;;;20.46;67.13;100084.06;3171539;28;19928;-63
2023/09/08 03:44:29;;;;;;;;;;;;;;;20.50;66.93;100088.16;3171047;28;19928;-63
2023/09/08 03:46:01;;;;;;;;;;;;;;;20.53;66.83;100087.94;3171621;28;19924;-63
2023/09/08 03:47:31;;;;;;;;;;;;;;;20.55;67.01;100087.81;3165304;28;19928;-64
2023/09/08 03:49:03;;;;;;;;;;;;;;;20.57;66.76;100086.72;3167703;28;20369;-64
2023/09/08 03:50:35;;;;;;;;;;;;;;;20.60;66.70;100083.00;3169212;28;19931;-64
2023/09/08 03:52:06;;;;;;;;;;;;;;;20.62;66.40;100078.41;3170987;28;20376;-63
2023/09/08 03:53:37;;;;;;;;;;;;;;;20.64;66.39;100082.59;3170435;28;19948;-63
2023/09/08 03:55:08;;;;;;;;;;;;;;;20.64;66.41;100076.47;3170744;28;19928;-64
2023/09/08 03:56:40;;;;;;;;;;;;;;;20.64;66.40;100079.94;3166442;28;19927;-65
2023/09/08 03:58:12;;;;;;;;;;;;;;;20.60;66.92;100089.13;3163305;28;19930;-64
2023/09/08 03:59:43;;;;;;;;;;;;;;;20.58;66.95;100087.56;3163792;28;20324;-65
2023/09/08 04:01:15;;;;;;;;;;;;;;;20.55;67.06;100096.56;3171380;28;19923;-63
2023/09/08 04:02:45;;;;;;;;;;;;;;;20.51;67.41;100092.50;3170703;28;19924;-63
2023/09/08 04:04:19;;;;;;;;;;;;;;;20.46;67.38;100086.72;3162301;28;20453;-64
2023/09/08 04:05:51;;;;;;;;;;;;;;;20.48;67.42;100086.63;3165596;28;19931;-64
2023/09/08 04:07:21;;;;;;;;;;;;;;;20.49;67.58;100098.88;3170384;28;20323;-63
2023/09/08 04:08:53;;;;;;;;;;;;;;;20.47;67.58;100091.06;3171399;28;19927;-63
2023/09/08 04:10:24;;;;;;;;;;;;;;;20.47;67.71;100091.06;3170811;28;20308;-63
2023/09/08 04:11:55;;;;;;;;;;;;;;;20.44;67.64;100094.81;3162289;28;19924;-68
2023/09/08 04:13:27;;;;;;;;;;;;;;;20.48;67.77;100094.56;3170651;28;20371;-67
2023/09/08 04:14:59;;;;;;;;;;;;;;;20.48;67.49;100095.38;3170368;28;19923;-67
2023/09/08 04:16:31;;;;;;;;;;;;;;;20.49;67.62;100101.50;3168122;28;20360;-68
2023/09/08 04:18:01;;;;;;;;;;;;;;;20.50;67.65;100098.75;3169036;28;19928;-68
2023/09/08 04:19:33;;;;;;;;;;;;;;;20.54;67.44;100104.66;3166503;28;19924;-74
2023/09/08 04:21:06;;;;;;;;;;;;;;;20.55;67.41;100108.97;3167798;28;20045;-67
2023/09/08 04:22:37;;;;;;;;;;;;;;;20.57;67.43;100113.19;3161388;28;20018;-69
2023/09/08 04:24:10;;;;;;;;;;;;;;;20.59;67.41;100111.25;3166930;28;19928;-70
2023/09/08 04:25:42;;;;;;;;;;;;;;;20.60;67.30;100107.63;3166812;28;20408;-70
2023/09/08 04:27:12;;;;;;;;;;;;;;;20.62;67.31;100105.72;3162127;28;20457;-68
2023/09/08 04:28:45;;;;;;;;;;;;;;;20.63;66.98;100102.09;3168340;28;20064;-68
2023/09/08 04:30:16;;;;;;;;;;;;;;;20.65;66.97;100110.75;3167886;28;19969;-70
2023/09/08 04:31:47;;;;;;;;;;;;;;;20.65;67.23;100107.28;3160154;28;19928;-67
2023/09/08 04:33:18;;;;;;;;;;;;;;;20.64;66.96;100111.69;3168543;28;20412;-68
2023/09/08 04:34:50;;;;;;;;;;;;;;;20.64;67.11;100116.16;3162394;28;19928;-68
2023/09/08 04:36:20;;;;;;;;;;;;;;;20.64;67.14;100116.16;3161316;28;20412;-69
2023/09/08 04:37:53;;;;;;;;;;;;;;;20.65;67.01;100116.03;3170983;28;19927;-68
2023/09/08 04:39:24;;;;;;;;;;;;;;;20.67;66.94;100124.72;3145672;28;20651;-72
2023/09/08 04:40:55;;;;;;;;;;;;;;;20.68;66.91;100118.44;3168035;28;20004;-68
2023/09/08 04:42:26;;;;;;;;;;;;;;;20.70;66.81;100123.59;3169114;28;20691;-69
2023/09/08 04:43:59;;;;;;;;;;;;;;;20.71;66.68;100127.09;3163290;28;19928;-69
2023/09/08 04:45:30;;;;;;;;;;;;;;;20.74;66.28;100130.31;3167291;28;20001;-68
2023/09/08 04:47:01;;;;;;;;;;;;;;;20.76;66.28;100130.19;3170771;28;19975;-69
2023/09/08 04:48:32;;;;;;;;;;;;;;;20.78;66.23;100128.25;3170925;28;20374;-69
2023/09/08 04:50:04;;;;;;;;;;;;;;;20.78;66.34;100130.91;3165409;28;19923;-70
2023/09/08 04:51:35;;;;;;;;;;;;;;;20.76;66.10;100128.38;3168638;28;19924;-68
2023/09/08 04:53:06;;;;;;;;;;;;;;;20.74;66.24;100130.31;3169223;28;19924;-68
2023/09/08 04:54:37;;;;;;;;;;;;;;;20.73;65.94;100122.50;3166207;28;20002;-68
2023/09/08 04:56:09;;;;;;;;;;;;;;;20.68;65.92;100118.44;3161382;28;19935;-75
2023/09/08 04:57:39;;;;;;;;;;;;;;;20.67;66.01;100121.19;3153649;28;19939;-73
2023/09/08 04:59:12;;;;;;;;;;;;;;;20.62;66.07;100118.94;3157335;28;19928;-75
2023/09/08 05:00:43;;;;;;;;;;;;;;;20.60;65.74;100118.22;3168580;28;20461;-73
2023/09/08 05:02:14;;;;;;;;;;;;;;;20.61;65.86;100119.06;3168621;28;19932;-73
2023/09/08 05:03:45;;;;;;;;;;;;;;;20.62;65.59;100123.41;3161855;28;19924;-71
2023/09/08 05:05:17;;;;;;;;;;;;;;;20.62;65.59;100123.41;3158998;28;20328;-72
2023/09/08 05:06:48;;;;;;;;;;;;;;;20.65;65.53;100129.28;3170279;28;20002;-71
2023/09/08 05:08:20;;;;;;;;;;;;;;;20.68;65.25;100128.19;3170545;28;19934;-74
2023/09/08 05:09:51;;;;;;;;;;;;;;;20.70;65.06;100128.03;3170367;28;19924;-80
2023/09/08 05:11:22;;;;;;;;;;;;;;;20.72;64.87;100134.91;3163726;28;19928;-79
2023/09/08 05:12:53;;;;;;;;;;;;;;;20.75;64.86;100125.88;3168008;28;20016;-74
2023/09/08 05:14:26;;;;;;;;;;;;;;;20.76;65.00;100132.84;3166848;28;19931;-76
2023/09/08 05:16:00;;;;;;;;;;;;;;;20.78;64.84;100138.84;3166375;28;19983;-75
2023/09/08 05:17:31;;;;;;;;;;;;;;;20.77;64.87;100139.81;3161693;28;19932;-77
2023/09/08 05:19:02;;;;;;;;;;;;;;;20.74;64.63;100140.06;3168659;28;20269;-77
2023/09/08 05:20:34;;;;;;;;;;;;;;;20.75;64.53;100134.63;3170613;28;19924;-77
2023/09/08 05:22:05;;;;;;;;;;;;;;;20.77;64.58;100139.81;3170082;28;19927;-75
2023/09/08 05:23:36;;;;;;;;;;;;;;;20.81;64.28;100134.13;3170529;28;19931;-76
2023/09/08 05:25:07;;;;;;;;;;;;;;;20.85;64.18;100135.59;3170320;28;19924;-70
2023/09/08 05:26:39;;;;;;;;;;;;;;;20.89;64.20;100137.00;3166978;28;19928;-76
2023/09/08 05:28:11;;;;;;;;;;;;;;;20.93;63.93;100140.22;3172104;28;19928;-71
2023/09/08 05:29:44;;;;;;;;;;;;;;;20.96;63.81;100129.38;3173127;27;19984;-75
2023/09/08 05:31:15;;;;;;;;;;;;;;;21.01;63.64;100131.66;3172903;28;20018;-72
2023/09/08 05:32:46;;;;;;;;;;;;;;;21.08;63.49;100133.63;3164886;28;19938;-71
2023/09/08 05:34:17;;;;;;;;;;;;;;;21.17;63.33;100141.78;3165800;28;19932;-74
2023/09/08 05:35:49;;;;;;;;;;;;;;;21.29;63.27;100138.09;3168978;28;19931;-70
2023/09/08 05:37:20;;;;;;;;;;;;;;;21.44;62.85;100136.81;3163915;28;20406;-71
2023/09/08 05:38:51;;;;;;;;;;;;;;;21.61;63.03;100142.50;3171299;28;19934;-70
2023/09/08 05:40:24;;;;;;;;;;;;;;;21.81;62.75;100137.16;3164021;28;20102;-72
2023/09/08 05:41:55;;;;;;;;;;;;;;;22.00;62.48;100143.50;3162246;28;19989;-75
2023/09/08 05:43:26;;;;;;;;;;;;;;;22.22;62.28;100143.34;3168943;28;20603;-76
2023/09/08 05:44:59;;;;;;;;;;;;;;;22.44;61.69;100144.06;3172954;28;19930;-76
2023/09/08 05:46:30;;;;;;;;;;;;;;;22.66;61.66;100143.00;3172787;28;19931;-71
2023/09/08 05:48:02;;;;;;;;;;;;;;;22.88;61.43;100149.84;3171691;28;19924;-71
2023/09/08 05:49:33;;;;;;;;;;;;;;;23.04;60.74;100150.16;3166724;28;19928;-73
2023/09/08 05:51:06;;;;;;;;;;;;;;;23.13;60.70;100148.44;3168491;28;19977;-73
2023/09/08 05:52:36;;;;;;;;;;;;;;;23.16;60.84;100149.03;3169417;28;19966;-79
2023/09/08 05:54:08;;;;;;;;;;;;;;;23.22;60.51;100149.41;3172612;28;19927;-78
2023/09/08 05:55:39;;;;;;;;;;;;;;;23.35;60.50;100156.13;3172643;28;19928;-77
2023/09/08 05:57:11;;;;;;;;;;;;;;;23.47;60.61;100164.75;3165661;28;19936;-76
2023/09/08 05:58:42;;;;;;;;;;;;;;;23.54;60.39;100157.88;3161840;28;19928;-78
2023/09/08 06:00:15;;;;;;;;;;;;;;;23.63;60.33;100156.16;3170943;28;19931;-69
2023/09/08 06:01:46;;;;;;;;;;;;;;;23.63;59.96;100153.50;3164768;28;19975;-69
2023/09/08 06:03:18;;;;;;;;;;;;;;;23.64;59.90;100165.00;3160349;28;19947;-72
2023/09/08 06:04:49;;;;;;;;;;;;;;;23.63;59.84;100161.50;3166428;28;20011;-73
2023/09/08 06:06:20;;;;;;;;;;;;;;;23.61;59.80;100158.16;3171949;28;19931;-71
2023/09/08 06:07:52;;;;;;;;;;;;;;;23.61;60.24;100159.00;3172640;28;20076;-72
2023/09/08 06:09:23;;;;;;;;;;;;;;;23.65;60.01;100162.19;3166125;28;20331;-70
2023/09/08 06:10:54;;;;;;;;;;;;;;;23.68;60.08;100164.56;3172704;28;19924;-71
2023/09/08 06:12:26;;;;;;;;;;;;;;;23.65;59.48;100156.88;3169265;28;19924;-69
2023/09/08 06:13:59;;;;;;;;;;;;;;;23.61;59.53;100156.34;3164483;28;20328;-69
2023/09/08 06:15:32;;;;;;;;;;;;;;;23.68;59.46;100163.72;3172348;28;19924;-73
2023/09/08 06:17:04;;;;;;;;;;;;;;;23.76;59.67;100158.56;3167444;27;19932;-69
2023/09/08 06:18:39;;;;;;;;;;;;;;;23.77;58.89;100160.22;3172622;28;19984;-70
2023/09/08 06:20:12;;;;;;;;;;;;;;;23.79;58.80;100169.75;3172745;28;19927;-71
2023/09/08 06:21:43;;;;;;;;;;;;;;;23.87;58.81;100168.16;3171996;28;19981;-69
2023/09/08 06:23:14;;;;;;;;;;;;;;;23.95;58.66;100170.94;3172178;28;19994;-70
2023/09/08 06:24:46;;;;;;;;;;;;;;;24.04;58.36;100162.06;3172090;28;19923;-71
2023/09/08 06:26:18;;;;;;;;;;;;;;;24.10;58.53;100177.44;3171897;28;20360;-71
2023/09/08 06:27:48;;;;;;;;;;;;;;;24.15;58.00;100175.19;3163644;28;19931;-71
2023/09/08 06:29:20;;;;;;;;;;;;;;;24.23;57.87;100171.81;3159571;28;19990;-71
2023/09/08 06:30:52;;;;;;;;;;;;;;;24.30;57.68;100176.38;3166476;28;19927;-71
2023/09/08 06:32:24;;;;;;;;;;;;;;;24.31;57.88;100179.84;3166618;28;19931;-71
2023/09/08 06:33:55;;;;;;;;;;;;;;;24.40;57.76;100180.78;3170492;28;19928;-70
2023/09/08 06:35:27;;;;;;;;;;;;;;;24.50;57.15;100185.13;3163359;28;19932;-71
2023/09/08 06:36:58;;;;;;;;;;;;;;;24.62;57.03;100185.75;3164137;28;19923;-71
2023/09/08 06:38:31;;;;;;;;;;;;;;;24.75;56.97;100172.88;3172056;28;19924;-70
2023/09/08 06:40:02;;;;;;;;;;;;;;;24.87;56.21;100183.31;3168086;28;19927;-71
2023/09/08 06:41:33;;;;;;;;;;;;;;;24.93;56.51;100180.88;3171726;28;20393;-71
2023/09/08 06:43:05;;;;;;;;;;;;;;;24.99;56.25;100179.41;3164143;28;20602;-72
2023/09/08 06:44:36;;;;;;;;;;;;;;;24.98;56.08;100181.25;3146775;28;19928;-71
2023/09/08 06:46:09;;;;;;;;;;;;;;;24.97;55.90;100186.75;3167655;28;19935;-72
2023/09/08 06:47:39;;;;;;;;;;;;;;;25.00;56.12;100177.63;3170489;28;19930;-72
2023/09/08 06:49:11;;;;;;;;;;;;;;;25.02;55.97;100184.44;3172276;28;19923;-72
2023/09/08 06:50:43;;;;;;;;;;;;;;;24.97;55.94;100184.09;3171841;28;19938;-69
2023/09/08 06:52:13;;;;;;;;;;;;;;;25.04;55.88;100181.63;3171367;28;19924;-70
2023/09/08 06:53:45;;;;;;;;;;;;;;;25.10;55.63;100192.50;3166371;28;19993;-71
2023/09/08 06:55:16;;;;;;;;;;;;;;;25.16;55.99;100175.94;3174187;28;20030;-68
2023/09/08 06:56:48;;;;;;;;;;;;;;;25.31;55.86;100183.38;3170914;28;19928;-74
2023/09/08 06:58:19;;;;;;;;;;;;;;;25.41;55.80;100184.13;3162536;28;20359;-69
2023/09/08 06:59:50;;;;;;;;;;;;;;;25.58;55.58;100180.56;3159972;28;20319;-72
2023/09/08 07:01:24;;;;;;;;;;;;;;;25.81;55.46;100182.72;3159118;28;20635;-76
2023/09/08 07:02:54;;;;;;;;;;;;;;;26.13;55.50;100189.25;3170226;28;19973;-74
2023/09/08 07:04:26;;;;;;;;;;;;;;;26.48;54.96;100186.34;3171554;28;20398;-78
2023/09/08 07:05:58;;;;;;;;;;;;;;;26.85;53.68;100189.63;3171676;28;20006;-74
2023/09/08 07:07:31;;;;;;;;;;;;;;;27.17;53.23;100189.69;3171725;28;20022;-77
2023/09/08 07:09:03;;;;;;;;;;;;;;;27.42;52.72;100190.50;3169146;28;19932;-74
2023/09/08 07:10:33;;;;;;;;;;;;;;;27.72;52.76;100192.63;3166616;28;19970;-75
2023/09/08 07:12:06;;;;;;;;;;;;;;;28.10;51.70;100193.69;3171895;28;19927;-73
2023/09/08 07:13:36;;;;;;;;;;;;;;;28.30;50.25;100200.31;3167486;28;19931;-74
2023/09/08 07:15:09;;;;;;;;;;;;;;;28.36;48.79;100196.09;3170808;28;19935;-76
2023/09/08 07:16:42;;;;;;;;;;;;;;;28.56;48.50;100191.16;3167427;28;19931;-73
2023/09/08 07:18:13;;;;;;;;;;;;;;;28.62;47.43;100192.31;3171219;28;19924;-72
2023/09/08 07:19:44;;;;;;;;;;;;;;;28.75;47.25;100180.00;3171560;28;19923;-71
2023/09/08 07:21:16;;;;;;;;;;;;;;;29.13;46.80;100182.75;3171219;27;19924;-70
2023/09/08 07:22:47;;;;;;;;;;;;;;;29.42;46.06;100186.53;3171848;28;20328;-70
2023/09/08 07:24:18;;;;;;;;;;;;;;;29.70;45.58;100184.09;3171177;28;19934;-72
2023/09/08 07:25:49;;;;;;;;;;;;;;;29.91;45.03;100176.13;3171115;28;20051;-73
2023/09/08 07:27:21;;;;;;;;;;;;;;;30.18;44.53;100181.84;3170967;27;19928;-72
2023/09/08 07:28:51;;;;;;;;;;;;;;;30.28;43.36;100184.25;3165703;28;19932;-72
2023/09/08 07:30:23;;;;;;;;;;;;;;;30.34;42.84;100189.72;3169820;28;20077;-71
2023/09/08 07:31:55;;;;;;;;;;;;;;;30.52;42.79;100183.09;3161312;28;19970;-69
2023/09/08 07:33:27;;;;;;;;;;;;;;;30.66;42.14;100178.69;3150807;28;19924;-72
2023/09/08 07:34:58;;;;;;;;;;;;;;;30.85;42.28;100178.06;3162505;28;19944;-69
2023/09/08 07:36:29;;;;;;;;;;;;;;;31.00;40.87;100178.88;3164193;28;20507;-70
2023/09/08 07:38:00;;;;;;;;;;;;;;;31.12;39.95;100172.94;3171328;28;19927;-71
2023/09/08 07:39:32;;;;;;;;;;;;;;;31.26;39.74;100172.03;3171297;28;19925;-70
2023/09/08 07:41:03;;;;;;;;;;;;;;;31.27;39.14;100173.72;3171345;28;20030;-71
2023/09/08 07:42:35;;;;;;;;;;;;;;;31.13;38.88;100166.56;3167434;28;19931;-65
2023/09/08 07:44:07;;;;;;;;;;;;;;;30.93;38.42;100169.88;3163798;28;20331;-66
2023/09/08 07:45:40;;;;;;;;;;;;;;;30.43;38.54;100173.47;3166450;28;20015;-68
2023/09/08 07:47:13;;;;;;;;;;;;;;;30.16;39.20;100168.59;3162212;28;19923;-72
2023/09/08 07:48:43;;;;;;;;;;;;;;;30.11;39.29;100159.44;3166149;28;19923;-72
2023/09/08 07:50:19;;;;;;;;;;;;;;;30.36;39.69;100159.97;3160960;28;20424;-69
2023/09/08 07:51:50;;;;;;;;;;;;;;;30.53;37.90;100160.59;3170626;28;19931;-69